createdAt,value
2023-06-16T00:01:31.586Z,31.70
2023-06-16T00:04:18.130Z,28.10
2023-06-16T00:07:03.903Z,29.20
2023-06-16T00:09:49.935Z,28.90
2023-06-16T00:12:37.142Z,27.80
2023-06-16T00:15:22.416Z,32.80
2023-06-16T00:18:08.040Z,31.00
2023-06-16T00:20:52.962Z,31.20
2023-06-16T00:23:39.272Z,30.80
2023-06-16T00:26:27.197Z,26.70
2023-06-16T00:29:12.246Z,28.00
2023-06-16T00:31:57.741Z,25.90
2023-06-16T00:34:43.693Z,28.70
2023-06-16T00:37:30.064Z,31.70
2023-06-16T00:40:15.802Z,29.00
2023-06-16T00:43:02.661Z,29.50
2023-06-16T00:45:49.716Z,28.20
2023-06-16T00:48:37.275Z,33.80
2023-06-16T00:51:25.889Z,31.20
2023-06-16T00:54:13.372Z,27.10
2023-06-16T00:56:59.403Z,29.50
2023-06-16T00:59:46.382Z,35.80
2023-06-16T01:02:33.118Z,30.30
2023-06-16T01:05:21.620Z,28.00
2023-06-16T01:08:32.785Z,31.20
2023-06-16T01:11:21.675Z,29.60
2023-06-16T01:14:12.979Z,28.30
2023-06-16T01:17:03.512Z,33.50
2023-06-16T01:20:09.537Z,34.20
2023-06-16T01:23:33.840Z,31.30
2023-06-16T01:26:23.181Z,35.20
2023-06-16T01:29:11.741Z,28.90
2023-06-16T01:32:00.938Z,30.20
2023-06-16T01:34:48.425Z,29.20
2023-06-16T01:37:33.965Z,24.90
2023-06-16T01:40:20.435Z,24.60
2023-06-16T01:43:07.289Z,25.70
2023-06-16T01:45:54.067Z,27.80
2023-06-16T01:48:39.230Z,22.60
2023-06-16T01:51:25.929Z,25.10
2023-06-16T01:54:11.438Z,19.90
2023-06-16T01:56:57.900Z,17.80
2023-06-16T01:59:45.098Z,21.40
2023-06-16T02:02:32.356Z,19.20
2023-06-16T02:05:22.717Z,19.50
2023-06-16T02:08:09.522Z,26.10
2023-06-16T02:10:55.727Z,23.60
2023-06-16T02:13:42.835Z,26.60
2023-06-16T02:16:30.076Z,25.20
2023-06-16T02:19:15.975Z,23.00
2023-06-16T02:22:02.743Z,20.80
2023-06-16T02:24:48.997Z,27.90
2023-06-16T02:27:34.562Z,17.80
2023-06-16T02:30:20.098Z,18.90
2023-06-16T02:33:06.160Z,22.80
2023-06-16T02:35:52.186Z,21.60
2023-06-16T02:38:37.758Z,19.20
2023-06-16T02:41:24.050Z,24.00
2023-06-16T02:44:10.490Z,26.10
2023-06-16T02:46:57.491Z,21.90
2023-06-16T02:49:43.357Z,22.20
2023-06-16T02:52:29.170Z,31.70
2023-06-16T02:55:16.006Z,29.90
2023-06-16T02:58:04.727Z,33.90
2023-06-16T03:00:50.451Z,34.40
2023-06-16T03:04:11.635Z,29.40
2023-06-16T03:07:13.158Z,27.10
2023-06-16T03:10:03.588Z,28.20
2023-06-16T03:13:00.061Z,25.40
2023-06-16T03:15:45.475Z,34.10
2023-06-16T03:18:30.868Z,26.60
2023-06-16T03:21:16.765Z,31.50
2023-06-16T03:24:05.620Z,34.50
2023-06-16T03:26:51.924Z,27.80
2023-06-16T03:32:29.887Z,34.40
2023-06-16T03:35:15.813Z,27.40
2023-06-16T03:38:02.046Z,31.50
2023-06-16T03:40:47.668Z,31.90
2023-06-16T03:43:33.487Z,23.60
2023-06-16T03:46:20.268Z,27.40
2023-06-16T03:49:07.831Z,28.90
2023-06-16T03:51:53.888Z,25.00
2023-06-16T03:54:40.528Z,31.90
2023-06-16T03:57:26.178Z,32.20
2023-06-16T04:00:12.484Z,25.50
2023-06-16T04:03:06.202Z,26.90
2023-06-16T04:05:54.234Z,21.50
2023-06-16T04:08:40.716Z,23.10
2023-06-16T04:11:27.842Z,23.80
2023-06-16T04:14:13.608Z,28.80
2023-06-16T04:17:00.451Z,25.70
2023-06-16T04:19:46.635Z,22.90
2023-06-16T04:22:33.371Z,23.00
2023-06-16T04:25:18.899Z,18.40
2023-06-16T04:28:06.445Z,27.60
2023-06-16T04:30:52.305Z,26.40
2023-06-16T04:33:42.320Z,17.30
2023-06-16T04:36:30.360Z,19.70
2023-06-16T04:39:17.480Z,18.80
2023-06-16T04:42:04.916Z,21.80
2023-06-16T04:44:50.699Z,18.70
2023-06-16T04:47:39.218Z,18.30
2023-06-16T04:50:24.732Z,20.60
2023-06-16T04:53:10.498Z,21.40
2023-06-16T04:55:55.618Z,17.60
2023-06-16T04:58:41.864Z,21.10
2023-06-16T05:01:27.649Z,18.20
2023-06-16T05:04:15.066Z,21.50
2023-06-16T05:07:00.659Z,19.80
2023-06-16T05:09:47.127Z,23.00
2023-06-16T05:12:33.287Z,14.70
2023-06-16T05:15:18.833Z,14.10
2023-06-16T05:18:04.873Z,19.30
2023-06-16T05:20:50.974Z,15.10
2023-06-16T05:23:37.529Z,16.70
2023-06-16T05:26:23.376Z,11.00
2023-06-16T05:29:09.864Z,11.20
2023-06-16T05:31:56.092Z,12.50
2023-06-16T05:34:42.215Z,14.50
2023-06-16T05:37:29.345Z,14.30
2023-06-16T05:40:15.330Z,12.40
2023-06-16T05:43:01.034Z,14.60
2023-06-16T05:45:46.442Z,17.40
2023-06-16T05:48:32.141Z,18.00
2023-06-16T05:51:17.797Z,12.50
2023-06-16T05:54:03.403Z,10.10
2023-06-16T05:56:48.457Z,9.70
2023-06-16T05:59:35.915Z,10.50
2023-06-16T06:02:21.905Z,13.50
2023-06-16T06:05:08.588Z,13.50
2023-06-16T06:07:54.513Z,9.50
2023-06-16T06:10:41.742Z,12.30
2023-06-16T06:13:27.357Z,13.20
2023-06-16T06:16:13.621Z,13.10
2023-06-16T06:18:59.168Z,12.50
2023-06-16T06:21:45.593Z,9.30
2023-06-16T06:24:31.786Z,17.10
2023-06-16T06:27:17.973Z,14.40
2023-06-16T06:30:04.761Z,10.40
2023-06-16T06:32:50.241Z,9.70
2023-06-16T06:35:36.580Z,10.50
2023-06-16T06:38:22.358Z,12.00
2023-06-16T06:41:08.052Z,8.30
2023-06-16T06:43:54.566Z,10.20
2023-06-16T06:47:00.039Z,9.70
2023-06-16T06:49:45.995Z,10.10
2023-06-16T06:52:31.189Z,11.30
2023-06-16T06:55:16.574Z,9.80
2023-06-16T06:58:03.111Z,8.30
2023-06-16T07:00:48.398Z,7.20
2023-06-16T07:03:34.096Z,7.70
2023-06-16T07:06:19.454Z,10.50
2023-06-16T07:09:05.122Z,8.90
2023-06-16T07:11:51.859Z,8.30
2023-06-16T07:14:37.612Z,11.30
2023-06-16T07:17:23.456Z,9.20
2023-06-16T07:20:09.729Z,9.30
2023-06-16T07:22:55.168Z,11.20
2023-06-16T07:25:40.382Z,9.40
2023-06-16T07:28:25.720Z,11.00
2023-06-16T07:31:11.559Z,7.30
2023-06-16T07:33:56.862Z,8.20
2023-06-16T07:36:42.221Z,8.60
2023-06-16T07:39:27.453Z,11.00
2023-06-16T07:42:13.854Z,8.80
2023-06-16T07:44:59.648Z,10.00
2023-06-16T07:47:48.932Z,10.10
2023-06-16T07:50:35.041Z,11.30
2023-06-16T07:53:21.310Z,10.50
2023-06-16T07:56:07.282Z,7.10
2023-06-16T07:58:52.924Z,8.90
2023-06-16T08:01:38.526Z,6.90
2023-06-16T08:04:25.663Z,10.50
2023-06-16T08:07:12.178Z,9.40
2023-06-16T08:09:57.531Z,8.30
2023-06-16T08:12:44.287Z,11.40
2023-06-16T08:15:29.982Z,11.50
2023-06-16T08:18:15.454Z,7.80
2023-06-16T08:21:01.447Z,9.40
2023-06-16T08:23:46.733Z,10.20
2023-06-16T08:26:32.622Z,10.50
2023-06-16T08:29:20.414Z,13.80
2023-06-16T08:32:07.120Z,12.00
2023-06-16T08:34:52.270Z,8.60
2023-06-16T08:37:39.573Z,8.90
2023-06-16T08:40:25.565Z,12.20
2023-06-16T08:43:14.335Z,9.80
2023-06-16T08:45:59.818Z,7.40
2023-06-16T08:48:45.882Z,9.20
2023-06-16T08:51:34.686Z,8.00
2023-06-16T08:54:20.789Z,6.90
2023-06-16T08:57:11.995Z,9.10
2023-06-16T09:00:00.855Z,8.30
2023-06-16T09:02:49.414Z,7.60
2023-06-16T09:05:36.846Z,8.20
2023-06-16T09:08:22.128Z,12.30
2023-06-16T09:11:08.214Z,11.00
2023-06-16T09:13:55.414Z,12.40
2023-06-16T09:16:41.846Z,6.50
2023-06-16T09:19:27.922Z,9.90
2023-06-16T09:22:20.988Z,7.10
2023-06-16T09:25:11.988Z,9.90
2023-06-16T09:27:59.598Z,8.20
2023-06-16T09:30:47.287Z,10.30
2023-06-16T09:33:33.130Z,9.10
2023-06-16T09:36:26.660Z,8.30
2023-06-16T09:39:25.065Z,14.00
2023-06-16T09:42:17.118Z,7.30
2023-06-16T09:47:53.957Z,8.00
2023-06-16T09:50:40.997Z,14.90
2023-06-16T09:53:26.931Z,10.70
2023-06-16T09:56:19.940Z,10.50
2023-06-16T09:59:05.649Z,18.10
2023-06-16T10:01:54.352Z,9.40
2023-06-16T10:04:41.816Z,11.80
2023-06-16T10:07:27.375Z,9.20
2023-06-16T10:10:13.171Z,9.70
2023-06-16T10:13:00.470Z,9.10
2023-06-16T10:15:48.713Z,9.40
2023-06-16T10:18:35.667Z,7.30
2023-06-16T10:21:23.473Z,9.70
2023-06-16T10:24:09.527Z,11.30
2023-06-16T10:26:55.487Z,9.10
2023-06-16T10:29:42.258Z,10.10
2023-06-16T10:32:27.937Z,9.40
2023-06-16T10:35:15.061Z,11.60
2023-06-16T10:38:01.594Z,11.00
2023-06-16T10:40:47.732Z,11.60
2023-06-16T10:43:33.094Z,11.60
2023-06-16T10:46:21.765Z,10.40
2023-06-16T10:49:08.519Z,9.30
2023-06-16T10:51:57.256Z,7.50
2023-06-16T10:54:51.730Z,8.20
2023-06-16T10:57:41.834Z,14.40
2023-06-16T11:00:28.271Z,10.70
2023-06-16T11:03:13.883Z,10.10
2023-06-16T11:06:00.696Z,8.70
2023-06-16T11:08:55.012Z,7.00
2023-06-16T11:11:40.603Z,7.70
2023-06-16T11:14:26.602Z,10.20
2023-06-16T11:17:14.244Z,7.50
2023-06-16T11:20:06.586Z,12.50
2023-06-16T11:22:52.003Z,8.30
2023-06-16T11:25:39.072Z,8.20
2023-06-16T11:28:25.723Z,7.30
2023-06-16T11:31:13.939Z,8.80
2023-06-16T11:33:59.997Z,8.30
2023-06-16T11:36:50.917Z,8.10
2023-06-16T11:39:46.580Z,9.00
2023-06-16T11:42:33.650Z,9.50
2023-06-16T11:45:19.387Z,6.60
2023-06-16T11:48:07.823Z,9.50
2023-06-16T11:50:53.672Z,8.20
2023-06-16T11:53:40.382Z,10.50
2023-06-16T11:56:26.164Z,12.90
2023-06-16T11:59:13.749Z,11.30
2023-06-16T12:02:01.340Z,5.60
2023-06-16T12:04:47.632Z,5.50
2023-06-16T12:07:33.883Z,9.40
2023-06-16T12:10:20.167Z,9.30
2023-06-16T12:13:08.370Z,9.60
2023-06-16T12:15:53.549Z,10.80
2023-06-16T12:18:39.299Z,10.00
2023-06-16T12:21:27.172Z,8.30
2023-06-16T12:24:12.281Z,6.90
2023-06-16T12:26:57.820Z,8.60
2023-06-16T12:29:45.350Z,7.30
2023-06-16T12:32:33.676Z,8.70
2023-06-16T12:35:25.203Z,9.70
2023-06-16T12:38:11.914Z,7.00
2023-06-16T12:40:57.323Z,6.60
2023-06-16T12:43:50.898Z,7.00
2023-06-16T12:46:36.710Z,8.20
2023-06-16T12:49:22.260Z,6.30
2023-06-16T12:52:09.539Z,15.90
2023-06-16T12:54:56.136Z,10.40
2023-06-16T12:57:41.958Z,7.90
2023-06-16T13:00:28.405Z,8.30
2023-06-16T13:03:15.619Z,10.50
2023-06-16T13:06:03.425Z,8.10
2023-06-16T13:08:48.951Z,7.20
2023-06-16T13:11:35.222Z,8.20
2023-06-16T13:14:23.078Z,7.30
2023-06-16T13:17:09.636Z,8.40
2023-06-16T13:19:55.217Z,8.20
2023-06-16T13:22:41.336Z,9.60
2023-06-16T13:25:26.771Z,10.60
2023-06-16T13:28:12.157Z,18.30
2023-06-16T13:30:57.661Z,7.60
2023-06-16T13:33:44.673Z,9.10
2023-06-16T13:36:31.067Z,9.10
2023-06-16T13:39:16.578Z,7.90
2023-06-16T13:42:02.286Z,9.00
2023-06-16T13:44:48.065Z,14.20
2023-06-16T13:47:33.881Z,8.90
2023-06-16T13:50:19.742Z,9.40
2023-06-16T13:53:05.357Z,7.20
2023-06-16T13:55:53.556Z,9.20
2023-06-16T13:58:39.196Z,8.50
2023-06-16T14:01:24.627Z,5.90
2023-06-16T14:04:10.155Z,7.60
2023-06-16T14:06:56.893Z,9.00
2023-06-16T14:09:42.507Z,8.60
2023-06-16T14:12:28.612Z,6.80
2023-06-16T14:15:15.349Z,6.60
2023-06-16T14:18:00.739Z,11.20
2023-06-16T14:20:46.144Z,8.90
2023-06-16T14:23:32.399Z,8.10
2023-06-16T14:26:18.113Z,12.70
2023-06-16T14:29:04.958Z,6.20
2023-06-16T14:31:51.225Z,8.70
2023-06-16T14:34:36.910Z,6.30
2023-06-16T14:37:22.357Z,7.50
2023-06-16T14:40:08.540Z,10.70
2023-06-16T14:42:54.457Z,8.40
2023-06-16T14:45:39.903Z,8.10
2023-06-16T14:48:25.462Z,8.80
2023-06-16T14:51:10.782Z,6.20
2023-06-16T14:53:56.641Z,7.40
2023-06-16T14:56:43.147Z,11.90
2023-06-16T14:59:28.563Z,12.30
2023-06-16T15:02:15.498Z,15.30
2023-06-16T15:05:00.860Z,7.30
2023-06-16T15:07:47.709Z,8.00
2023-06-16T15:10:33.540Z,8.70
2023-06-16T15:13:19.389Z,6.60
2023-06-16T15:16:04.884Z,7.30
2023-06-16T15:18:50.084Z,9.00
2023-06-16T15:21:36.252Z,8.70
2023-06-16T15:24:21.672Z,9.40
2023-06-16T15:27:08.601Z,6.20
2023-06-16T15:29:53.938Z,5.10
2023-06-16T15:32:39.416Z,6.20
2023-06-16T15:35:24.987Z,11.20
2023-06-16T15:38:10.849Z,9.30
2023-06-16T15:40:56.672Z,7.40
2023-06-16T15:43:41.888Z,8.80
2023-06-16T15:46:27.757Z,5.90
2023-06-16T15:49:12.957Z,10.70
2023-06-16T15:51:58.823Z,12.20
2023-06-16T15:54:43.678Z,8.40
2023-06-16T15:57:29.448Z,6.20
2023-06-16T16:00:15.257Z,7.30
2023-06-16T16:03:03.548Z,10.00
2023-06-16T16:05:51.034Z,6.30
2023-06-16T16:08:37.256Z,7.40
2023-06-16T16:11:22.631Z,10.40
2023-06-16T16:14:08.160Z,12.50
2023-06-16T16:16:53.613Z,7.50
2023-06-16T16:19:39.232Z,10.70
2023-06-16T16:22:24.690Z,6.60
2023-06-16T16:25:09.638Z,6.70
2023-06-16T16:27:55.753Z,6.60
2023-06-16T16:30:40.747Z,6.90
2023-06-16T16:33:26.076Z,8.40
2023-06-16T16:36:11.678Z,7.50
2023-06-16T16:38:57.436Z,10.20
2023-06-16T16:41:43.143Z,8.30
2023-06-16T16:44:30.246Z,6.00
2023-06-16T16:47:16.198Z,8.80
2023-06-16T16:50:03.007Z,5.60
2023-06-16T16:52:48.411Z,11.20
2023-06-16T16:55:36.934Z,7.50
2023-06-16T16:58:22.654Z,7.40
2023-06-16T17:01:09.583Z,8.60
2023-06-16T17:03:55.607Z,8.10
2023-06-16T17:06:41.863Z,8.60
2023-06-16T17:09:27.095Z,7.70
2023-06-16T17:12:12.716Z,6.40
2023-06-16T17:14:59.066Z,6.80
2023-06-16T17:17:44.417Z,6.90
2023-06-16T17:20:30.007Z,7.80
2023-06-16T17:23:15.173Z,8.40
2023-06-16T17:26:01.683Z,7.90
2023-06-16T17:28:48.187Z,8.30
2023-06-16T17:31:33.658Z,7.80
2023-06-16T17:34:19.295Z,7.30
2023-06-16T17:37:05.643Z,6.80
2023-06-16T17:39:51.228Z,8.60
2023-06-16T17:42:36.598Z,10.90
2023-06-16T17:45:22.327Z,8.70
2023-06-16T17:48:08.116Z,9.10
2023-06-16T17:50:53.850Z,7.30
2023-06-16T17:53:39.408Z,6.60
2023-06-16T17:56:25.510Z,7.70
2023-06-16T17:59:10.900Z,8.20
2023-06-16T18:01:56.697Z,8.40
2023-06-16T18:04:43.404Z,7.60
2023-06-16T18:07:29.909Z,12.60
2023-06-16T18:10:15.894Z,9.20
2023-06-16T18:13:01.506Z,7.80
2023-06-16T18:15:47.750Z,7.70
2023-06-16T18:18:33.476Z,9.00
2023-06-16T18:21:18.797Z,8.70
2023-06-16T18:24:04.309Z,8.70
2023-06-16T18:26:49.651Z,7.80
2023-06-16T18:29:36.397Z,7.60
2023-06-16T18:32:22.108Z,8.80
2023-06-16T18:35:08.371Z,8.10
2023-06-16T18:37:54.147Z,7.70
2023-06-16T18:40:39.624Z,10.90
2023-06-16T18:43:28.091Z,18.20
2023-06-16T18:46:14.419Z,10.30
2023-06-16T18:49:00.165Z,9.50
2023-06-16T18:51:45.254Z,7.80
2023-06-16T18:54:32.298Z,48.50
2023-06-16T18:57:17.985Z,11.60
2023-06-16T19:00:04.467Z,10.30
